createdAt,value
2017-01-18T00:00:28.998Z,1021.34
2017-01-18T00:01:09.481Z,1021.38
2017-01-18T00:01:49.983Z,1021.39
2017-01-18T00:02:30.535Z,1021.35
2017-01-18T00:03:11.022Z,1021.4
2017-01-18T00:03:51.497Z,1021.33
2017-01-18T00:04:32.000Z,1021.37
2017-01-18T00:05:12.500Z,1021.34
2017-01-18T00:05:53.029Z,1021.3
2017-01-18T00:06:33.546Z,1021.33
2017-01-18T00:07:14.054Z,1021.29
2017-01-18T00:07:54.566Z,1021.25
2017-01-18T00:08:35.043Z,1021.28
2017-01-18T00:09:15.534Z,1021.33
2017-01-18T00:09:56.037Z,1021.31
2017-01-18T00:10:36.539Z,1021.39
2017-01-18T00:11:17.045Z,1021.35
2017-01-18T00:11:57.522Z,1021.37
2017-01-18T00:12:38.061Z,1021.33
2017-01-18T00:13:18.525Z,1021.29
2017-01-18T00:13:59.044Z,1021.36
2017-01-18T00:14:39.560Z,1021.31
2017-01-18T00:15:20.061Z,1021.35
2017-01-18T00:16:00.531Z,1021.33
2017-01-18T00:16:41.028Z,1021.37
2017-01-18T00:17:21.522Z,1021.35
2017-01-18T00:18:02.040Z,1021.25
2017-01-18T00:18:42.535Z,1021.29
2017-01-18T00:19:23.029Z,1021.25
2017-01-18T00:20:03.532Z,1021.32
2017-01-18T00:20:44.024Z,1021.26
2017-01-18T00:21:24.547Z,1021.23
2017-01-18T00:22:05.031Z,1021.28
2017-01-18T00:22:45.575Z,1021.3
2017-01-18T00:23:26.063Z,1021.27
2017-01-18T00:24:06.558Z,1021.26
2017-01-18T00:24:47.021Z,1021.23
2017-01-18T00:25:27.516Z,1021.26
2017-01-18T00:26:08.100Z,1021.27
2017-01-18T00:26:48.572Z,1021.26
2017-01-18T00:27:29.105Z,1021.24
2017-01-18T00:28:09.543Z,1021.2
2017-01-18T00:28:50.065Z,1021.21
2017-01-18T00:29:30.576Z,1021.22
2017-01-18T00:30:11.046Z,1021.18
2017-01-18T00:30:51.529Z,1021.22
2017-01-18T00:31:32.015Z,1021.22
2017-01-18T00:32:12.546Z,1021.21
2017-01-18T00:32:53.006Z,1021.18
2017-01-18T00:33:33.471Z,1021.17
2017-01-18T00:34:13.973Z,1021.18
2017-01-18T00:34:54.430Z,1021.2
2017-01-18T00:35:34.885Z,1021.23
2017-01-18T00:36:15.356Z,1021.28
2017-01-18T00:36:55.865Z,1021.31
2017-01-18T00:37:36.369Z,1021.3
2017-01-18T00:38:16.848Z,1021.32
2017-01-18T00:38:57.369Z,1021.32
2017-01-18T00:39:37.857Z,1021.32
2017-01-18T00:40:18.372Z,1021.36
2017-01-18T00:40:58.879Z,1021.36
2017-01-18T00:41:39.378Z,1021.36
2017-01-18T00:42:19.891Z,1021.36
2017-01-18T00:43:00.378Z,1021.44
2017-01-18T00:43:40.883Z,1021.47
2017-01-18T00:44:21.383Z,1021.28
2017-01-18T00:45:01.854Z,1021.41
2017-01-18T00:45:42.350Z,1021.45
2017-01-18T00:46:22.844Z,1021.42
2017-01-18T00:47:03.375Z,1021.32
2017-01-18T00:47:43.889Z,1021.37
2017-01-18T00:48:24.416Z,1021.4
2017-01-18T00:49:04.928Z,1021.41
2017-01-18T00:49:45.468Z,1021.46
2017-01-18T00:50:25.968Z,1021.4
2017-01-18T00:51:06.472Z,1021.37
2017-01-18T00:51:46.973Z,1021.39
2017-01-18T00:52:27.480Z,1021.32
2017-01-18T00:53:07.985Z,1021.31
2017-01-18T00:53:48.494Z,1021.37
2017-01-18T00:54:28.984Z,1021.36
2017-01-18T00:55:09.491Z,1021.39
2017-01-18T00:55:49.970Z,1021.36
2017-01-18T00:56:30.488Z,1021.39
2017-01-18T00:57:10.982Z,1021.38
2017-01-18T00:57:51.513Z,1021.33
2017-01-18T00:58:32.023Z,1021.4
2017-01-18T00:59:12.487Z,1021.41
2017-01-18T00:59:53.000Z,1021.43
2017-01-18T01:00:33.478Z,1021.35
2017-01-18T01:01:13.995Z,1021.46
2017-01-18T01:01:54.502Z,1021.41
2017-01-18T01:02:35.002Z,1021.42
2017-01-18T01:03:15.485Z,1021.42
2017-01-18T01:03:55.998Z,1021.36
2017-01-18T01:04:36.507Z,1021.38
2017-01-18T01:05:16.992Z,1021.44
2017-01-18T01:05:57.461Z,1021.37
2017-01-18T01:06:37.940Z,1021.37
2017-01-18T01:07:18.442Z,1021.4
2017-01-18T01:07:58.960Z,1021.42
2017-01-18T01:08:39.459Z,1021.39
2017-01-18T01:09:19.955Z,1021.41
2017-01-18T01:10:00.464Z,1021.38
2017-01-18T01:10:40.970Z,1021.39
2017-01-18T01:11:21.469Z,1021.45
2017-01-18T01:12:01.968Z,1021.41
2017-01-18T01:12:42.480Z,1021.36
2017-01-18T01:13:23.030Z,1021.34
2017-01-18T01:14:03.507Z,1021.34
2017-01-18T01:14:44.027Z,1021.39
2017-01-18T01:15:24.477Z,1021.43
2017-01-18T01:16:05.158Z,1021.43
2017-01-18T01:16:45.659Z,1021.41
2017-01-18T01:17:26.150Z,1021.47
2017-01-18T01:18:06.648Z,1021.46
2017-01-18T01:18:47.127Z,1021.43
2017-01-18T01:19:27.622Z,1021.45
2017-01-18T01:20:08.108Z,1021.39
2017-01-18T01:20:48.637Z,1021.42
2017-01-18T01:21:29.094Z,1021.41
2017-01-18T01:22:09.624Z,1021.45
2017-01-18T01:22:50.156Z,1021.38
2017-01-18T01:23:30.712Z,1021.41
2017-01-18T01:24:11.166Z,1021.41
2017-01-18T01:24:51.713Z,1021.41
2017-01-18T01:25:32.237Z,1021.38
2017-01-18T01:26:12.720Z,1021.47
2017-01-18T01:26:53.237Z,1021.41
2017-01-18T01:27:33.745Z,1021.39
2017-01-18T01:28:14.242Z,1021.4
2017-01-18T01:28:54.756Z,1021.39
2017-01-18T01:29:35.235Z,1021.44
2017-01-18T01:30:15.722Z,1021.34
2017-01-18T01:30:56.248Z,1021.46
2017-01-18T01:31:36.803Z,1021.36
2017-01-18T01:32:17.253Z,1021.37
2017-01-18T01:32:57.740Z,1021.43
2017-01-18T01:33:38.229Z,1021.46
2017-01-18T01:34:18.754Z,1021.47
2017-01-18T01:34:59.261Z,1021.38
2017-01-18T01:35:39.715Z,1021.45
2017-01-18T01:36:20.199Z,1021.46
2017-01-18T01:37:00.693Z,1021.39
2017-01-18T01:37:41.233Z,1021.38
2017-01-18T01:38:21.676Z,1021.4
2017-01-18T01:39:02.184Z,1021.42
2017-01-18T01:39:42.698Z,1021.38
2017-01-18T01:40:23.199Z,1021.41
2017-01-18T01:41:03.698Z,1021.42
2017-01-18T01:41:44.192Z,1021.41
2017-01-18T01:42:24.697Z,1021.31
2017-01-18T01:43:05.191Z,1021.44
2017-01-18T01:43:45.693Z,1021.35
2017-01-18T01:45:58.947Z,1021.41
2017-01-18T01:46:39.458Z,1021.43
2017-01-18T01:47:19.940Z,1021.42
2017-01-18T01:48:00.451Z,1021.37
2017-01-18T01:48:40.960Z,1021.35
2017-01-18T01:49:21.474Z,1021.33
2017-01-18T01:50:01.943Z,1021.32
2017-01-18T01:50:42.449Z,1021.4
2017-01-18T01:51:22.923Z,1021.31
2017-01-18T01:52:03.408Z,1021.33
2017-01-18T01:52:43.898Z,1021.36
2017-01-18T01:53:24.540Z,1021.4
2017-01-18T01:54:04.889Z,1021.4
2017-01-18T01:54:45.357Z,1021.33
2017-01-18T01:55:25.821Z,1021.38
2017-01-18T01:56:06.305Z,1021.33
2017-01-18T01:56:46.824Z,1021.33
2017-01-18T01:57:27.294Z,1021.32
2017-01-18T01:59:25.512Z,1021.31
2017-01-18T02:00:06.005Z,1021.27
2017-01-18T02:00:46.497Z,1021.31
2017-01-18T02:01:26.995Z,1021.44
2017-01-18T02:02:07.502Z,1021.32
2017-01-18T02:02:47.976Z,1021.35
2017-01-18T02:03:28.491Z,1021.34
2017-01-18T02:04:09.002Z,1021.39
2017-01-18T02:04:49.579Z,1021.37
2017-01-18T02:05:29.970Z,1021.36
2017-01-18T02:06:10.542Z,1021.32
2017-01-18T02:06:51.017Z,1021.35
2017-01-18T02:07:31.518Z,1021.38
2017-01-18T02:08:11.972Z,1021.41
2017-01-18T02:08:52.488Z,1021.29
2017-01-18T02:09:32.963Z,1021.24
2017-01-18T02:10:13.473Z,1021.33
2017-01-18T02:10:53.962Z,1021.38
2017-01-18T02:11:34.597Z,1021.23
2017-01-18T02:12:15.157Z,1021.35
2017-01-18T02:12:55.606Z,1021.25
2017-01-18T02:13:36.128Z,1021.3
2017-01-18T02:14:16.604Z,1021.29
2017-01-18T02:14:57.104Z,1021.2
2017-01-18T02:15:37.549Z,1021.18
2017-01-18T02:16:18.000Z,1021.2
2017-01-18T02:16:58.503Z,1021.2
2017-01-18T02:17:39.016Z,1021.2
2017-01-18T02:18:19.563Z,1021.16
2017-01-18T02:19:00.035Z,1021.26
2017-01-18T02:19:40.532Z,1021.22
2017-01-18T02:20:21.062Z,1021.21
2017-01-18T02:21:01.528Z,1021.3
2017-01-18T02:21:42.022Z,1021.27
2017-01-18T02:22:22.516Z,1021.23
2017-01-18T02:23:02.982Z,1021.28
2017-01-18T02:23:43.477Z,1021.3
2017-01-18T02:24:23.960Z,1021.23
2017-01-18T02:25:04.476Z,1021.32
2017-01-18T02:25:44.977Z,1021.17
2017-01-18T02:26:25.426Z,1021.11
2017-01-18T02:27:05.936Z,1021.09
2017-01-18T02:27:46.478Z,1021.21
2017-01-18T02:28:26.952Z,1021.17
2017-01-18T02:29:07.531Z,1021.09
2017-01-18T02:29:48.058Z,1021.14
2017-01-18T02:30:28.582Z,1021.14
2017-01-18T02:31:09.044Z,1021.13
2017-01-18T02:31:49.542Z,1021.27
2017-01-18T02:32:30.144Z,1021.11
2017-01-18T02:33:10.638Z,1021.14
2017-01-18T02:33:51.190Z,1021.12
2017-01-18T02:34:31.716Z,1021.19
2017-01-18T02:35:12.167Z,1021.09
2017-01-18T02:35:52.628Z,1021.18
2017-01-18T02:36:33.182Z,1021.15
2017-01-18T02:37:13.608Z,1021.07
2017-01-18T02:37:54.147Z,1021.09
2017-01-18T02:38:34.611Z,1021.09
2017-01-18T02:39:15.088Z,1021.13
2017-01-18T02:39:55.627Z,1021.08
2017-01-18T02:40:36.134Z,1021.09
2017-01-18T02:41:16.633Z,1021.04
2017-01-18T02:41:57.121Z,1021.04
2017-01-18T02:42:37.586Z,1021.1
2017-01-18T02:43:18.082Z,1021.07
2017-01-18T02:43:58.583Z,1021.15
2017-01-18T02:44:39.091Z,1021.1
2017-01-18T02:45:19.545Z,1021.05
2017-01-18T02:46:00.030Z,1021.04
2017-01-18T02:46:40.530Z,1021.07
2017-01-18T02:47:21.081Z,1021.02
2017-01-18T02:48:01.576Z,1021.15
2017-01-18T02:48:42.092Z,1021.19
2017-01-18T02:49:22.550Z,1021
2017-01-18T02:50:03.047Z,1021.05
2017-01-18T02:50:43.561Z,1021.06
2017-01-18T02:51:24.099Z,1021.05
2017-01-18T02:52:04.564Z,1021.01
2017-01-18T02:52:45.079Z,1021.05
2017-01-18T02:53:25.542Z,1021.04
2017-01-18T02:54:06.039Z,1021.02
2017-01-18T02:54:46.553Z,1020.98
2017-01-18T02:55:27.046Z,1020.94
2017-01-18T02:56:07.558Z,1021.01
2017-01-18T02:56:48.041Z,1021.05
2017-01-18T02:57:28.589Z,1020.99
2017-01-18T02:58:09.084Z,1021.08
2017-01-18T02:58:49.560Z,1021.04
2017-01-18T02:59:30.026Z,1020.99
2017-01-18T03:00:10.511Z,1021
2017-01-18T03:00:51.002Z,1021.01
2017-01-18T03:01:31.487Z,1021.05
2017-01-18T03:02:12.020Z,1020.97
2017-01-18T03:02:52.503Z,1021.03
2017-01-18T03:03:33.017Z,1021.1
2017-01-18T03:04:13.501Z,1021.08
2017-01-18T03:04:54.044Z,1020.96
2017-01-18T03:05:34.492Z,1021.07
2017-01-18T03:06:15.001Z,1020.99
2017-01-18T03:06:55.495Z,1021
2017-01-18T03:07:35.966Z,1021.11
2017-01-18T03:08:16.434Z,1020.97
2017-01-18T03:08:56.958Z,1021.01
2017-01-18T03:09:37.453Z,1020.99
2017-01-18T03:10:17.973Z,1021.04
2017-01-18T03:10:58.455Z,1021
2017-01-18T03:11:38.972Z,1020.97
2017-01-18T03:12:19.442Z,1021
2017-01-18T03:12:59.957Z,1021.04
2017-01-18T03:13:40.445Z,1020.99
2017-01-18T03:14:20.922Z,1020.96
2017-01-18T03:15:01.430Z,1021.02
2017-01-18T03:15:41.871Z,1021.01
2017-01-18T03:16:22.382Z,1020.98
2017-01-18T03:17:02.864Z,1020.98
2017-01-18T03:17:43.424Z,1021.03
2017-01-18T03:18:23.849Z,1021.14
2017-01-18T03:19:04.343Z,1021.05
2017-01-18T03:19:44.859Z,1021.04
2017-01-18T03:20:25.370Z,1021
2017-01-18T03:21:05.851Z,1020.99
2017-01-18T03:21:46.347Z,1021.02
2017-01-18T03:22:26.872Z,1021.02
2017-01-18T03:23:07.354Z,1020.96
2017-01-18T03:23:47.855Z,1021.04
2017-01-18T03:24:28.339Z,1020.95
2017-01-18T03:25:08.865Z,1020.97
2017-01-18T03:25:49.342Z,1020.9
2017-01-18T03:26:29.877Z,1020.99
2017-01-18T03:27:10.344Z,1020.94
2017-01-18T03:27:50.821Z,1020.92
2017-01-18T03:28:31.327Z,1020.91
2017-01-18T03:29:11.830Z,1020.91
2017-01-18T03:29:52.325Z,1020.91
2017-01-18T03:30:32.831Z,1020.93
2017-01-18T03:31:13.297Z,1020.94
2017-01-18T03:31:53.797Z,1020.91
2017-01-18T03:32:34.320Z,1020.89
2017-01-18T03:33:14.816Z,1020.93
2017-01-18T03:33:55.334Z,1021.06
2017-01-18T03:34:35.828Z,1021.06
2017-01-18T03:35:16.331Z,1020.99
2017-01-18T03:35:56.870Z,1021.01
2017-01-18T03:36:37.360Z,1021.01
2017-01-18T03:37:17.863Z,1021.04
2017-01-18T03:37:58.341Z,1021.03
2017-01-18T03:38:38.820Z,1021.02
2017-01-18T03:39:19.341Z,1020.96
2017-01-18T03:39:59.814Z,1020.99
2017-01-18T03:40:40.307Z,1021
2017-01-18T03:41:20.813Z,1020.99
2017-01-18T03:42:01.329Z,1021.02
2017-01-18T03:42:41.837Z,1021
2017-01-18T03:43:22.331Z,1021.04
2017-01-18T03:44:02.811Z,1021.04
2017-01-18T03:44:43.303Z,1020.98
2017-01-18T03:45:23.809Z,1021.01
2017-01-18T03:46:04.313Z,1020.97
2017-01-18T03:46:44.786Z,1020.92
2017-01-18T03:47:25.280Z,1021.05
2017-01-18T03:48:05.790Z,1021.04
2017-01-18T03:48:46.286Z,1021.03
2017-01-18T03:49:26.829Z,1021.07
2017-01-18T03:50:07.303Z,1020.97
2017-01-18T03:50:47.839Z,1020.99
2017-01-18T03:51:28.350Z,1020.94
2017-01-18T03:52:08.830Z,1020.97
2017-01-18T03:52:49.331Z,1020.96
2017-01-18T03:53:29.858Z,1021
2017-01-18T03:54:10.303Z,1020.99
2017-01-18T03:54:50.782Z,1020.95
2017-01-18T03:55:31.292Z,1020.97
2017-01-18T03:56:11.915Z,1021
2017-01-18T03:56:52.400Z,1021
2017-01-18T03:57:32.859Z,1020.96
2017-01-18T03:58:13.377Z,1020.95
2017-01-18T03:58:53.898Z,1020.93
2017-01-18T03:59:34.397Z,1020.98
2017-01-18T04:00:14.908Z,1020.96
2017-01-18T04:00:55.418Z,1020.92
2017-01-18T04:01:35.910Z,1020.94
2017-01-18T04:02:16.414Z,1020.92
2017-01-18T04:02:57.119Z,1020.91
2017-01-18T04:03:37.590Z,1020.95
2017-01-18T04:04:18.070Z,1020.9
2017-01-18T04:04:58.561Z,1020.98
2017-01-18T04:05:39.063Z,1020.9
2017-01-18T04:06:19.569Z,1020.88
2017-01-18T04:07:00.046Z,1020.89
2017-01-18T04:07:40.542Z,1020.95
2017-01-18T04:08:21.045Z,1020.98
2017-01-18T04:09:01.525Z,1020.89
2017-01-18T04:09:42.028Z,1020.9
2017-01-18T04:10:22.513Z,1020.88
2017-01-18T04:11:03.007Z,1020.94
2017-01-18T04:11:43.545Z,1020.92
2017-01-18T04:12:24.031Z,1020.88
2017-01-18T04:13:04.502Z,1020.93
2017-01-18T04:13:45.027Z,1020.9
2017-01-18T04:14:25.510Z,1020.89
2017-01-18T04:15:06.017Z,1020.85
2017-01-18T04:15:46.495Z,1020.89
2017-01-18T04:16:27.042Z,1020.93
2017-01-18T04:17:07.554Z,1020.96
2017-01-18T04:17:48.033Z,1020.88
2017-01-18T04:18:28.533Z,1020.83
2017-01-18T04:19:09.045Z,1020.91
2017-01-18T04:19:49.533Z,1020.82
2017-01-18T04:20:30.042Z,1020.86
2017-01-18T04:21:10.523Z,1020.8
2017-01-18T04:21:51.039Z,1020.76
2017-01-18T04:22:31.523Z,1020.81
2017-01-18T04:23:12.016Z,1020.81
2017-01-18T04:23:52.495Z,1020.79
2017-01-18T04:24:33.009Z,1020.78
2017-01-18T04:25:13.519Z,1020.84
2017-01-18T04:25:54.015Z,1020.82
2017-01-18T04:26:34.565Z,1020.75
2017-01-18T04:27:15.023Z,1020.72
2017-01-18T04:27:55.531Z,1020.77
2017-01-18T04:28:36.026Z,1020.73
2017-01-18T04:29:16.542Z,1020.75
2017-01-18T04:29:57.059Z,1020.8
2017-01-18T04:30:37.525Z,1020.76
2017-01-18T04:31:17.974Z,1020.77
2017-01-18T04:31:58.495Z,1020.77
2017-01-18T04:32:38.958Z,1020.8
2017-01-18T04:33:19.437Z,1020.73
2017-01-18T04:33:59.925Z,1020.81
2017-01-18T04:34:40.431Z,1020.77
2017-01-18T04:35:20.900Z,1020.76
2017-01-18T04:36:01.393Z,1020.81
2017-01-18T04:36:41.892Z,1020.74
2017-01-18T04:37:22.414Z,1020.81
2017-01-18T04:38:02.890Z,1020.76
2017-01-18T04:38:43.392Z,1020.74
2017-01-18T04:39:23.889Z,1020.8
2017-01-18T04:40:04.392Z,1020.75
2017-01-18T04:40:44.895Z,1020.7
2017-01-18T04:41:25.400Z,1020.73
2017-01-18T04:42:05.860Z,1020.73
2017-01-18T04:42:46.383Z,1020.77
2017-01-18T04:43:26.882Z,1020.79
2017-01-18T04:44:07.394Z,1020.75
2017-01-18T04:44:47.897Z,1020.79
2017-01-18T04:45:28.378Z,1020.78
2017-01-18T04:46:08.875Z,1020.75
2017-01-18T04:46:49.374Z,1020.76
2017-01-18T04:47:29.864Z,1020.82
2017-01-18T04:48:10.364Z,1020.77
2017-01-18T04:48:50.859Z,1020.81
2017-01-18T04:49:31.377Z,1020.77
2017-01-18T04:50:11.894Z,1020.75
2017-01-18T04:50:52.380Z,1020.76
2017-01-18T04:51:32.901Z,1020.78
2017-01-18T04:52:13.424Z,1020.82
2017-01-18T04:52:53.893Z,1020.79
2017-01-18T04:53:34.426Z,1020.78
2017-01-18T04:54:14.896Z,1020.8
2017-01-18T04:54:55.390Z,1020.81
2017-01-18T04:55:35.907Z,1020.82
2017-01-18T04:56:16.395Z,1020.8
2017-01-18T04:56:56.905Z,1020.94
2017-01-18T04:57:37.396Z,1020.91
2017-01-18T04:58:17.912Z,1020.92
2017-01-18T04:58:58.433Z,1020.83
2017-01-18T04:59:38.908Z,1020.87
2017-01-18T05:00:19.427Z,1020.89
2017-01-18T05:00:59.961Z,1020.85
2017-01-18T05:01:40.424Z,1020.87
2017-01-18T05:02:20.895Z,1020.83
2017-01-18T05:03:01.406Z,1020.95
2017-01-18T05:03:41.883Z,1020.86
2017-01-18T05:04:22.389Z,1020.96
2017-01-18T05:05:02.872Z,1021.01
2017-01-18T05:05:43.366Z,1021.04
2017-01-18T05:06:23.856Z,1020.94
2017-01-18T05:07:04.350Z,1020.92
2017-01-18T05:07:44.843Z,1020.95
2017-01-18T05:08:25.340Z,1020.94
2017-01-18T05:09:05.820Z,1020.92
2017-01-18T05:09:46.319Z,1020.98
2017-01-18T05:10:26.841Z,1020.99
2017-01-18T05:11:07.332Z,1021.02
2017-01-18T05:11:47.851Z,1020.94
2017-01-18T05:12:28.321Z,1020.99
2017-01-18T05:13:08.805Z,1020.98
2017-01-18T05:13:49.294Z,1020.99
2017-01-18T05:14:29.775Z,1021.07
2017-01-18T05:15:10.291Z,1021
2017-01-18T05:15:50.793Z,1021.04
2017-01-18T05:16:31.264Z,1021.07
2017-01-18T05:17:11.798Z,1021.05
2017-01-18T05:17:52.284Z,1020.99
2017-01-18T05:18:32.790Z,1021.05
2017-01-18T05:19:13.246Z,1020.99
2017-01-18T05:19:53.766Z,1021.07
2017-01-18T05:20:34.275Z,1021.01
2017-01-18T05:21:14.766Z,1021.07
2017-01-18T05:21:55.258Z,1021.09
2017-01-18T05:22:35.747Z,1021.09
2017-01-18T05:23:16.252Z,1021.16
2017-01-18T05:23:56.772Z,1021.01
2017-01-18T05:24:37.226Z,1021.06
2017-01-18T05:25:17.738Z,1021.06
2017-01-18T05:25:58.218Z,1021.01
2017-01-18T05:26:38.702Z,1021.1
2017-01-18T05:27:19.228Z,1021.13
2017-01-18T05:27:59.690Z,1021.1
2017-01-18T05:28:40.199Z,1021.16
2017-01-18T05:29:20.694Z,1021.17
2017-01-18T05:30:01.243Z,1021.16
2017-01-18T05:30:41.710Z,1021.11
2017-01-18T05:31:22.185Z,1021.17
2017-01-18T05:32:02.681Z,1021.22
2017-01-18T05:32:43.172Z,1021.11
2017-01-18T05:33:23.652Z,1021.15
2017-01-18T05:34:04.169Z,1021.12
2017-01-18T05:34:44.657Z,1021.13
2017-01-18T05:35:25.150Z,1021.17
2017-01-18T05:36:05.654Z,1021.15
2017-01-18T05:36:46.178Z,1021.18
2017-01-18T05:37:26.625Z,1021.19
2017-01-18T05:38:07.110Z,1021.13
2017-01-18T05:38:47.615Z,1021.14
2017-01-18T05:39:28.169Z,1021.1
2017-01-18T05:40:08.641Z,1021.17
2017-01-18T05:40:49.158Z,1021.11
2017-01-18T05:41:29.644Z,1021.12
2017-01-18T05:42:10.115Z,1021.11
2017-01-18T05:42:50.620Z,1021.14
2017-01-18T05:43:31.112Z,1021.2
2017-01-18T05:44:11.627Z,1021.18
2017-01-18T05:44:52.120Z,1021.14
2017-01-18T05:45:32.626Z,1021.14
2017-01-18T05:46:13.136Z,1021.09
2017-01-18T05:46:53.605Z,1021.06
2017-01-18T05:47:34.124Z,1021.14
2017-01-18T05:48:14.648Z,1021.07
2017-01-18T05:48:55.129Z,1021.11
2017-01-18T05:49:35.631Z,1021.04
2017-01-18T05:50:16.112Z,1021.08
2017-01-18T05:50:56.619Z,1021.07
2017-01-18T05:53:09.862Z,1021.17
2017-01-18T05:53:50.350Z,1021.09
2017-01-18T05:54:30.877Z,1021.08
2017-01-18T05:55:11.381Z,1021.11
2017-01-18T05:55:51.897Z,1021.08
2017-01-18T05:56:32.395Z,1021.08
2017-01-18T05:57:12.895Z,1021.01
2017-01-18T05:57:53.381Z,1021.02
2017-01-18T05:58:33.885Z,1021.08
2017-01-18T05:59:14.371Z,1020.99
2017-01-18T05:59:54.877Z,1020.96
2017-01-18T06:00:35.370Z,1021
2017-01-18T06:01:15.874Z,1021.03
2017-01-18T06:01:56.362Z,1021.09
2017-01-18T06:02:36.885Z,1020.96
2017-01-18T06:03:17.362Z,1021.16
2017-01-18T06:03:57.855Z,1021.04
2017-01-18T06:04:38.356Z,1021.13
2017-01-18T06:05:18.849Z,1021.21
2017-01-18T06:05:59.343Z,1021.19
2017-01-18T06:06:39.828Z,1021.15
2017-01-18T06:07:20.307Z,1021.11
2017-01-18T06:08:00.794Z,1021.13
2017-01-18T06:08:41.287Z,1021.16
2017-01-18T06:09:21.769Z,1021.19
2017-01-18T06:10:02.240Z,1021.18
2017-01-18T06:10:42.735Z,1021.2
2017-01-18T06:11:23.247Z,1021.21
2017-01-18T06:12:03.739Z,1021.21
2017-01-18T06:12:44.259Z,1021.22
2017-01-18T06:13:24.751Z,1021.22
2017-01-18T06:14:05.249Z,1021.21
2017-01-18T06:14:45.741Z,1021.24
2017-01-18T06:15:26.210Z,1021.21
2017-01-18T06:16:06.759Z,1021.28
2017-01-18T06:16:47.217Z,1021.31
2017-01-18T06:17:27.730Z,1021.29
2017-01-18T06:18:08.245Z,1021.33
2017-01-18T06:18:49.086Z,1021.3
2017-01-18T06:19:29.598Z,1021.28
2017-01-18T06:20:10.108Z,1021.33
2017-01-18T06:20:50.552Z,1021.31
2017-01-18T06:21:31.041Z,1021.34
2017-01-18T06:22:11.535Z,1021.38
2017-01-18T06:22:52.040Z,1021.32
2017-01-18T06:23:32.540Z,1021.28
2017-01-18T06:24:13.038Z,1021.27
2017-01-18T06:24:53.546Z,1021.27
2017-01-18T06:25:34.060Z,1021.29
2017-01-18T06:26:14.562Z,1021.33
2017-01-18T06:26:55.057Z,1021.32
2017-01-18T06:27:35.582Z,1021.34
2017-01-18T06:28:16.066Z,1021.37
2017-01-18T06:28:56.565Z,1021.31
2017-01-18T06:29:37.096Z,1021.33
2017-01-18T06:30:17.579Z,1021.33
2017-01-18T06:32:15.724Z,1021.32
2017-01-18T06:32:56.263Z,1021.36
2017-01-18T06:33:36.720Z,1021.37
2017-01-18T06:34:17.199Z,1021.39
2017-01-18T06:34:57.732Z,1021.43
2017-01-18T06:35:38.234Z,1021.42
2017-01-18T06:36:18.719Z,1021.43
2017-01-18T06:36:59.218Z,1021.48
2017-01-18T06:37:39.687Z,1021.44
2017-01-18T06:38:20.180Z,1021.41
2017-01-18T06:39:00.739Z,1021.46
2017-01-18T06:39:41.235Z,1021.5
2017-01-18T06:40:21.760Z,1021.42
2017-01-18T06:41:02.279Z,1021.48
2017-01-18T06:41:42.769Z,1021.52
2017-01-18T06:42:23.295Z,1021.53
2017-01-18T06:43:03.770Z,1021.49
2017-01-18T06:43:44.258Z,1021.52
2017-01-18T06:44:24.785Z,1021.55
2017-01-18T06:45:05.256Z,1021.52
2017-01-18T06:45:45.798Z,1021.61
2017-01-18T06:46:26.225Z,1021.56
2017-01-18T06:47:06.702Z,1021.6
2017-01-18T06:47:47.227Z,1021.59
2017-01-18T06:48:27.767Z,1021.66
2017-01-18T06:49:08.241Z,1021.65
2017-01-18T06:49:48.782Z,1021.6
2017-01-18T06:50:29.267Z,1021.54
2017-01-18T06:51:09.910Z,1021.61
2017-01-18T06:51:50.264Z,1021.65
2017-01-18T06:52:30.845Z,1021.63
2017-01-18T06:53:11.715Z,1021.6
2017-01-18T06:53:52.341Z,1021.66
2017-01-18T06:54:32.865Z,1021.55
2017-01-18T06:55:13.312Z,1021.62
2017-01-18T06:55:57.005Z,1021.63
2017-01-18T06:56:38.251Z,1021.66
2017-01-18T06:57:19.620Z,1021.7
2017-01-18T06:58:00.136Z,1021.65
2017-01-18T06:58:40.628Z,1021.63
2017-01-18T06:59:21.147Z,1021.66
2017-01-18T07:00:01.711Z,1021.65
2017-01-18T07:00:42.368Z,1021.63
2017-01-18T07:01:23.653Z,1021.72
2017-01-18T07:02:04.171Z,1021.74
2017-01-18T07:02:44.754Z,1021.75
2017-01-18T07:03:25.243Z,1021.75
2017-01-18T07:04:05.726Z,1021.78
2017-01-18T07:04:46.314Z,1021.76
2017-01-18T07:05:29.428Z,1021.78
2017-01-18T07:06:11.372Z,1021.76
2017-01-18T07:06:52.566Z,1021.78
2017-01-18T07:07:32.983Z,1021.78
2017-01-18T07:08:13.438Z,1021.86
2017-01-18T07:08:53.922Z,1021.84
2017-01-18T07:09:34.492Z,1021.8
2017-01-18T07:10:14.925Z,1021.8
2017-01-18T07:10:55.429Z,1021.79
2017-01-18T07:11:35.886Z,1021.82
2017-01-18T07:12:16.465Z,1021.81
2017-01-18T07:12:57.652Z,1021.83
2017-01-18T07:13:38.151Z,1021.89
2017-01-18T07:14:18.620Z,1021.84
2017-01-18T07:14:59.220Z,1021.83
2017-01-18T07:15:39.665Z,1021.88
2017-01-18T07:16:20.107Z,1021.88
2017-01-18T07:17:00.642Z,1021.9
2017-01-18T07:17:41.103Z,1021.92
2017-01-18T07:18:21.607Z,1021.92
2017-01-18T07:19:02.109Z,1021.94
2017-01-18T07:19:42.627Z,1021.95
2017-01-18T07:20:23.059Z,1022.01
2017-01-18T07:21:03.594Z,1021.9
2017-01-18T07:21:44.163Z,1021.94
2017-01-18T07:22:24.590Z,1021.94
2017-01-18T07:23:05.123Z,1022.01
2017-01-18T07:23:45.620Z,1021.97
2017-01-18T07:24:26.234Z,1022.01
2017-01-18T07:25:06.737Z,1021.99
2017-01-18T07:25:47.280Z,1021.91
2017-01-18T07:26:27.816Z,1021.95
2017-01-18T07:27:08.196Z,1021.9
2017-01-18T07:27:48.721Z,1021.91
2017-01-18T07:28:29.243Z,1021.88
2017-01-18T07:29:09.703Z,1021.94
2017-01-18T07:29:50.299Z,1021.87
2017-01-18T07:30:30.838Z,1021.86
2017-01-18T07:31:11.362Z,1021.84
2017-01-18T07:31:51.856Z,1021.93
2017-01-18T07:32:32.422Z,1021.91
2017-01-18T07:33:13.048Z,1021.95
2017-01-18T07:33:53.515Z,1021.98
2017-01-18T07:34:34.097Z,1022
2017-01-18T07:35:14.565Z,1021.99
2017-01-18T07:35:55.045Z,1021.99
2017-01-18T07:36:35.554Z,1022.02
2017-01-18T07:37:16.040Z,1021.97
2017-01-18T07:37:56.575Z,1022.05
2017-01-18T07:38:37.070Z,1022.02
2017-01-18T07:39:17.589Z,1022.02
2017-01-18T07:39:58.074Z,1022.06
2017-01-18T07:40:38.730Z,1022.07
2017-01-18T07:41:19.224Z,1022.05
2017-01-18T07:41:59.701Z,1022.09
2017-01-18T07:42:40.200Z,1022.09
2017-01-18T07:43:20.683Z,1022.03
2017-01-18T07:44:01.203Z,1022.05
2017-01-18T07:44:43.389Z,1022.08
2017-01-18T07:45:24.029Z,1022.06
2017-01-18T07:46:04.539Z,1022
2017-01-18T07:46:45.053Z,1022.03
2017-01-18T07:47:25.615Z,1022.05
2017-01-18T07:48:06.145Z,1022.09
2017-01-18T07:48:46.686Z,1022.06
2017-01-18T07:49:27.142Z,1022.06
2017-01-18T07:50:07.616Z,1022.08
2017-01-18T07:50:48.303Z,1022.12
2017-01-18T07:51:28.737Z,1022.18
2017-01-18T07:52:09.247Z,1022.12
2017-01-18T07:52:49.693Z,1022.12
2017-01-18T07:53:30.196Z,1022.18
2017-01-18T07:54:10.698Z,1022.16
2017-01-18T07:54:51.224Z,1022.09
2017-01-18T07:55:31.648Z,1022.29
2017-01-18T07:56:12.132Z,1022.19
2017-01-18T07:56:52.640Z,1022.14
2017-01-18T07:57:33.253Z,1022.19
2017-01-18T07:58:13.735Z,1022.19
2017-01-18T07:58:54.234Z,1022.22
2017-01-18T07:59:34.705Z,1022.26
2017-01-18T08:00:15.293Z,1022.29
2017-01-18T08:00:55.727Z,1022.24
2017-01-18T08:01:36.239Z,1022.22
2017-01-18T08:02:16.748Z,1022.28
2017-01-18T08:02:57.280Z,1022.27
2017-01-18T08:03:37.773Z,1022.32
2017-01-18T08:04:18.262Z,1022.33
2017-01-18T08:04:58.711Z,1022.31
2017-01-18T08:05:39.242Z,1022.33
2017-01-18T08:06:19.738Z,1022.22
2017-01-18T08:07:00.230Z,1022.25
2017-01-18T08:07:40.718Z,1022.24
2017-01-18T08:08:21.194Z,1022.29
2017-01-18T08:09:01.664Z,1022.25
2017-01-18T08:09:42.175Z,1022.25
2017-01-18T08:10:22.625Z,1022.27
2017-01-18T08:11:03.124Z,1022.4
2017-01-18T08:11:43.619Z,1022.34
2017-01-18T08:12:24.092Z,1022.22
2017-01-18T08:13:04.586Z,1022.25
2017-01-18T08:13:45.102Z,1022.26
2017-01-18T08:14:25.588Z,1022.18
2017-01-18T08:15:06.054Z,1022.22
2017-01-18T08:15:46.521Z,1022.25
2017-01-18T08:16:27.028Z,1022.29
2017-01-18T08:17:07.548Z,1022.27
2017-01-18T08:17:47.999Z,1022.28